Strona główna
METAR-TAF:

METAR-TAF

Lotnisko :

Port lotniczy Cherbourg-Maupertus

Cherbourg, Francja

Szerokość geograficzna: 49-39N, Długość geograficzna: 001-28W, wysokość: 138 m

Aktualna obserwacja pogody

Raport powstał 39 minut temu, godzina 03:30 UTC
Wiatr 17 kt od północny wschód, zmienny między północ i wschodnio-północny wschód
Temperatura 4°C
Wilgotność 60%
Ciśnienie 1034 hPa
Widzialność 10 km lub więcej
Zachmurzenie całkowite na wysokości 4200 ft

METAR: LFRC 300330Z AUTO 04017KT 010V070 9999 OVC042 04/M03 Q1034

czas: 06:09 (04:09 UTC)


TAF: brakujący

Obserwacja i prognoza pogody dla ponad 4000 lotnisk (raport METAR i TAF).

Dostępne stacje oznaczono żółtymi i czerwonymi punktami na mapie.

Najedź kursorem aby zobaczyć nazwę stacji.

Kliknij aby zobaczyć obserwacje i prognozy pogody.

Aby zmienić mapę: kliknij na zielony przycisk z czarnym krzyżykiem, aby powiększyć; na zielony przycisk z myślnikiem, aby pomniejszyć; na zielone strzałki, aby przejść do map sąsiednich.


METAR-TAF: